createdAt,value
2022-10-17T00:01:05.620Z,37.66
2022-10-17T00:03:33.602Z,37.52
2022-10-17T00:06:07.202Z,37.80
2022-10-17T00:08:35.503Z,37.48
2022-10-17T00:11:07.597Z,37.54
2022-10-17T00:13:36.679Z,37.60
2022-10-17T00:16:05.153Z,37.63
2022-10-17T00:18:33.271Z,37.86
2022-10-17T00:21:01.354Z,37.71
2022-10-17T00:23:30.431Z,37.44
2022-10-17T00:26:01.884Z,37.37
2022-10-17T00:28:31.505Z,37.83
2022-10-17T00:30:59.686Z,37.69
2022-10-17T00:33:27.881Z,37.58
2022-10-17T00:36:04.717Z,37.52
2022-10-17T00:38:32.585Z,37.66
2022-10-17T00:41:00.533Z,37.58
2022-10-17T00:43:29.716Z,37.47
2022-10-17T00:45:59.003Z,37.41
2022-10-17T00:48:27.353Z,37.43
2022-10-17T00:50:56.119Z,37.52
2022-10-17T00:53:24.090Z,37.41
2022-10-17T00:55:54.030Z,37.50
2022-10-17T00:58:22.537Z,37.32
2022-10-17T01:00:50.621Z,37.43
2022-10-17T01:03:20.037Z,37.77
2022-10-17T01:05:48.116Z,37.67
2022-10-17T01:08:16.259Z,37.58
2022-10-17T01:10:55.801Z,37.52
2022-10-17T01:13:29.350Z,37.54
2022-10-17T01:16:05.732Z,37.69
2022-10-17T01:18:49.250Z,37.88
2022-10-17T01:21:31.529Z,37.69
2022-10-17T01:24:24.697Z,37.64
2022-10-17T01:27:11.564Z,37.98
2022-10-17T01:30:02.884Z,37.70
2022-10-17T01:32:40.789Z,37.86
2022-10-17T01:35:17.463Z,37.81
2022-10-17T01:37:49.475Z,37.74
2022-10-17T01:40:24.120Z,37.91
2022-10-17T01:42:59.168Z,38.10
2022-10-17T01:45:33.465Z,37.79
2022-10-17T01:48:08.381Z,37.89
2022-10-17T01:50:40.981Z,37.70
2022-10-17T01:53:14.469Z,37.94
2022-10-17T01:55:45.373Z,37.91
2022-10-17T01:58:19.065Z,37.82
2022-10-17T02:00:49.942Z,37.95
2022-10-17T02:03:21.818Z,37.92
2022-10-17T02:05:50.001Z,37.68
2022-10-17T02:08:28.153Z,37.66
2022-10-17T02:11:02.631Z,37.60
2022-10-17T02:13:44.688Z,37.52
2022-10-17T02:16:25.772Z,37.49
2022-10-17T02:19:09.239Z,37.69
2022-10-17T02:21:46.458Z,37.58
2022-10-17T02:24:21.617Z,37.39
2022-10-17T02:26:56.615Z,37.61
2022-10-17T02:29:30.424Z,37.47
2022-10-17T02:32:03.836Z,37.54
2022-10-17T02:34:37.681Z,37.31
2022-10-17T02:37:09.584Z,37.24
2022-10-17T02:39:39.255Z,37.19
2022-10-17T02:42:11.752Z,37.21
2022-10-17T02:44:43.670Z,37.30
2022-10-17T02:47:21.309Z,37.36
2022-10-17T02:49:53.152Z,37.03
2022-10-17T02:52:28.841Z,37.11
2022-10-17T02:55:03.919Z,37.26
2022-10-17T02:57:37.017Z,37.36
2022-10-17T03:00:08.757Z,37.21
2022-10-17T03:02:41.094Z,37.08
2022-10-17T03:05:14.449Z,37.10
2022-10-17T03:07:42.409Z,36.95
2022-10-17T03:10:10.730Z,37.00
2022-10-17T03:12:38.937Z,36.99
2022-10-17T03:15:08.234Z,36.92
2022-10-17T03:17:36.860Z,36.76
2022-10-17T03:20:05.751Z,36.80
2022-10-17T03:22:35.069Z,36.60
2022-10-17T03:25:05.136Z,36.51
2022-10-17T03:27:36.108Z,36.83
2022-10-17T03:30:05.030Z,36.49
2022-10-17T03:32:34.537Z,36.80
2022-10-17T03:35:02.583Z,36.49
2022-10-17T03:37:31.029Z,36.65
2022-10-17T03:40:01.460Z,36.40
2022-10-17T03:42:30.358Z,36.44
2022-10-17T03:44:58.664Z,36.14
2022-10-17T03:47:26.666Z,36.29
2022-10-17T03:49:54.669Z,36.26
2022-10-17T03:52:22.877Z,36.20
2022-10-17T03:54:51.584Z,36.13
2022-10-17T03:57:21.150Z,36.34
2022-10-17T03:59:51.005Z,36.29
2022-10-17T04:02:21.133Z,35.96
2022-10-17T04:04:50.310Z,36.17
2022-10-17T04:07:18.377Z,36.12
2022-10-17T04:09:47.485Z,36.14
2022-10-17T04:12:21.177Z,36.25
2022-10-17T04:14:49.478Z,36.28
2022-10-17T04:17:18.181Z,36.23
2022-10-17T04:19:46.588Z,35.94
2022-10-17T04:22:17.192Z,36.04
2022-10-17T04:24:45.133Z,35.96
2022-10-17T04:27:33.137Z,36.23
2022-10-17T04:30:01.443Z,36.36
2022-10-17T04:32:32.008Z,36.11
2022-10-17T04:35:08.646Z,36.17
2022-10-17T04:37:37.132Z,36.26
2022-10-17T04:40:12.458Z,36.09
2022-10-17T04:42:41.836Z,35.94
2022-10-17T04:45:12.050Z,36.16
2022-10-17T04:47:41.391Z,36.12
2022-10-17T04:50:10.143Z,36.07
2022-10-17T04:52:38.347Z,36.00
2022-10-17T04:55:07.028Z,36.07
2022-10-17T04:57:36.498Z,35.87
2022-10-17T05:00:13.349Z,35.91
2022-10-17T05:03:00.334Z,35.84
2022-10-17T05:05:29.647Z,36.17
2022-10-17T05:07:58.562Z,35.92
2022-10-17T05:10:30.528Z,36.27
2022-10-17T05:12:59.430Z,36.09
2022-10-17T05:15:32.932Z,35.84
2022-10-17T05:18:02.321Z,36.11
2022-10-17T05:20:31.599Z,35.93
2022-10-17T05:23:00.543Z,36.08
2022-10-17T05:25:33.092Z,36.14
2022-10-17T05:28:01.140Z,35.97
2022-10-17T05:30:31.448Z,36.12
2022-10-17T05:33:04.043Z,36.14
2022-10-17T05:35:32.595Z,36.19
2022-10-17T05:38:01.057Z,36.31
2022-10-17T05:40:31.181Z,36.17
2022-10-17T05:43:00.144Z,36.00
2022-10-17T05:45:28.084Z,36.34
2022-10-17T05:47:56.014Z,36.25
2022-10-17T05:50:25.426Z,36.10
2022-10-17T05:53:13.936Z,35.97
2022-10-17T05:55:46.897Z,36.13
2022-10-17T05:58:22.133Z,36.28
2022-10-17T06:01:02.206Z,35.90
2022-10-17T06:03:30.455Z,36.01
2022-10-17T06:06:05.097Z,35.88
2022-10-17T06:08:33.261Z,35.81
2022-10-17T06:11:04.815Z,35.81
2022-10-17T06:13:36.100Z,35.93
2022-10-17T06:16:10.841Z,35.78
2022-10-17T06:18:39.663Z,36.16
2022-10-17T06:21:11.636Z,36.07
2022-10-17T06:23:44.362Z,36.39
2022-10-17T06:26:20.618Z,36.15
2022-10-17T06:28:49.568Z,36.38
2022-10-17T06:31:18.606Z,35.99
2022-10-17T06:33:48.064Z,36.14
2022-10-17T06:36:17.323Z,36.24
2022-10-17T06:38:46.450Z,36.28
2022-10-17T06:41:33.506Z,36.27
2022-10-17T06:44:10.990Z,36.25
2022-10-17T06:46:39.399Z,35.99
2022-10-17T06:49:11.304Z,36.03
2022-10-17T06:51:51.844Z,36.14
2022-10-17T06:54:24.095Z,36.15
2022-10-17T06:57:14.576Z,36.02
2022-10-17T06:59:53.340Z,35.91
2022-10-17T07:02:29.870Z,35.90
2022-10-17T07:05:00.587Z,35.94
2022-10-17T07:07:31.965Z,35.94
2022-10-17T07:10:00.296Z,35.85
2022-10-17T07:12:28.290Z,35.84
2022-10-17T07:14:56.228Z,35.69
2022-10-17T07:17:24.386Z,35.97
2022-10-17T07:19:52.465Z,35.73
2022-10-17T07:22:20.397Z,35.93
2022-10-17T07:24:52.019Z,35.87
2022-10-17T07:27:27.332Z,35.93
2022-10-17T07:29:55.429Z,35.78
2022-10-17T07:32:38.114Z,35.92
2022-10-17T07:35:06.897Z,35.75
2022-10-17T07:37:34.922Z,35.90
2022-10-17T07:40:06.441Z,35.73
2022-10-17T07:45:07.648Z,35.67
2022-10-17T07:47:36.220Z,35.76
2022-10-17T07:50:07.398Z,35.45
2022-10-17T07:52:35.422Z,35.49
2022-10-17T07:55:03.304Z,35.49
2022-10-17T07:57:32.586Z,35.57
2022-10-17T08:00:00.501Z,35.42
2022-10-17T08:02:29.292Z,35.40
2022-10-17T08:04:57.332Z,35.70
2022-10-17T08:07:29.162Z,35.39
2022-10-17T08:09:57.576Z,36.09
2022-10-17T08:12:26.040Z,36.82
2022-10-17T08:14:55.316Z,38.11
2022-10-17T08:17:23.169Z,39.14
2022-10-17T08:19:51.100Z,40.43
2022-10-17T08:22:19.058Z,41.27
2022-10-17T08:24:47.315Z,41.11
2022-10-17T08:27:15.314Z,40.48
2022-10-17T08:29:43.241Z,40.18
2022-10-17T08:32:12.471Z,39.41
2022-10-17T08:34:40.320Z,39.17
2022-10-17T08:37:08.302Z,38.69
2022-10-17T08:39:36.202Z,38.44
2022-10-17T08:42:19.428Z,38.13
2022-10-17T08:44:55.825Z,38.08
2022-10-17T08:47:30.627Z,37.73
2022-10-17T08:50:02.170Z,37.57
2022-10-17T08:52:37.715Z,37.18
2022-10-17T08:55:10.978Z,36.97
2022-10-17T08:57:39.024Z,37.09
2022-10-17T09:00:16.773Z,36.90
2022-10-17T09:02:54.612Z,36.67
2022-10-17T09:05:31.672Z,36.65
2022-10-17T09:08:10.277Z,36.36
2022-10-17T09:10:56.099Z,36.46
2022-10-17T09:16:19.564Z,36.25
2022-10-17T09:19:03.875Z,36.29
2022-10-17T09:21:43.108Z,36.11
2022-10-17T09:24:17.503Z,36.08
2022-10-17T09:26:47.006Z,35.95
2022-10-17T09:29:23.001Z,35.75
2022-10-17T09:31:58.816Z,35.68
2022-10-17T09:34:30.214Z,35.65
2022-10-17T09:37:00.286Z,35.57
2022-10-17T09:39:31.886Z,35.29
2022-10-17T09:42:01.085Z,35.44
2022-10-17T09:44:33.144Z,35.00
2022-10-17T09:47:25.185Z,34.95
2022-10-17T09:49:54.609Z,35.13
2022-10-17T09:52:27.825Z,35.15
2022-10-17T09:55:00.946Z,34.76
2022-10-17T09:57:29.482Z,35.01
2022-10-17T10:00:00.406Z,34.84
2022-10-17T10:02:30.428Z,34.72
2022-10-17T10:05:04.648Z,34.53
2022-10-17T10:07:36.672Z,34.79
2022-10-17T10:10:07.525Z,34.50
2022-10-17T10:12:37.970Z,34.57
2022-10-17T10:15:33.802Z,34.60
2022-10-17T10:18:02.097Z,34.35
2022-10-17T10:20:34.442Z,34.22
2022-10-17T10:23:13.686Z,34.27
2022-10-17T10:25:53.981Z,34.26
2022-10-17T10:28:26.591Z,34.29
2022-10-17T10:30:56.585Z,34.22
2022-10-17T10:33:28.445Z,34.27
2022-10-17T10:36:01.232Z,33.99
2022-10-17T10:38:29.749Z,34.21
2022-10-17T10:41:03.221Z,34.18
2022-10-17T10:43:37.877Z,34.05
2022-10-17T10:46:17.093Z,34.02
2022-10-17T10:48:52.785Z,33.84
2022-10-17T10:51:29.255Z,33.86
2022-10-17T10:54:04.910Z,33.44
2022-10-17T10:56:38.914Z,33.79
2022-10-17T10:59:14.877Z,33.54
2022-10-17T11:01:51.383Z,33.68
2022-10-17T11:04:27.660Z,33.51
2022-10-17T11:07:11.671Z,33.46
2022-10-17T11:09:49.755Z,33.39
2022-10-17T11:12:23.773Z,33.43
2022-10-17T11:14:57.602Z,33.41
2022-10-17T11:17:33.978Z,33.36
2022-10-17T11:20:15.068Z,33.12
2022-10-17T11:22:48.582Z,33.07
2022-10-17T11:25:35.301Z,33.14
2022-10-17T11:28:05.325Z,33.13
2022-10-17T11:30:46.110Z,33.09
2022-10-17T11:33:19.690Z,33.00
2022-10-17T11:35:51.214Z,33.44
2022-10-17T11:38:26.464Z,33.23
2022-10-17T11:40:59.584Z,33.29
2022-10-17T11:43:32.381Z,33.29
2022-10-17T11:46:05.833Z,33.38
2022-10-17T11:48:40.738Z,33.41
2022-10-17T11:54:07.707Z,33.44
2022-10-17T11:56:42.934Z,34.18
2022-10-17T11:59:41.116Z,34.59
2022-10-17T12:02:15.972Z,35.25
2022-10-17T12:04:55.785Z,35.69
2022-10-17T12:07:34.217Z,35.70
2022-10-17T12:10:22.749Z,35.62
2022-10-17T12:12:50.685Z,35.75
2022-10-17T12:15:31.990Z,35.64
2022-10-17T12:18:02.877Z,35.60
2022-10-17T12:20:35.692Z,35.66
2022-10-17T12:23:24.259Z,35.41
2022-10-17T12:25:58.403Z,35.50
2022-10-17T12:28:33.122Z,35.36
2022-10-17T12:31:05.742Z,35.48
2022-10-17T12:33:36.741Z,35.25
2022-10-17T12:36:47.515Z,35.28
2022-10-17T12:39:52.394Z,35.23
2022-10-17T12:42:52.492Z,34.96
2022-10-17T12:45:46.011Z,35.21
2022-10-17T12:48:14.063Z,35.06
2022-10-17T12:53:59.755Z,35.05
2022-10-17T12:56:38.746Z,34.89
2022-10-17T12:59:17.536Z,34.96
2022-10-17T13:01:48.189Z,34.98
2022-10-17T13:04:17.161Z,34.99
2022-10-17T13:06:48.191Z,35.13
2022-10-17T13:09:25.995Z,35.06
2022-10-17T13:11:55.083Z,35.16
2022-10-17T13:14:25.758Z,35.26
2022-10-17T13:16:55.850Z,35.10
2022-10-17T13:19:26.994Z,35.29
2022-10-17T13:21:59.893Z,35.53
2022-10-17T13:24:33.566Z,35.59
2022-10-17T13:27:01.910Z,35.98
2022-10-17T13:29:32.955Z,36.00
2022-10-17T13:32:04.044Z,36.07
2022-10-17T13:34:33.721Z,36.26
2022-10-17T13:37:03.902Z,36.45
2022-10-17T13:39:54.418Z,36.46
2022-10-17T13:42:27.623Z,36.51
2022-10-17T13:44:58.623Z,36.63
2022-10-17T13:47:29.463Z,36.58
2022-10-17T13:49:59.009Z,36.86
2022-10-17T13:52:29.778Z,36.81
2022-10-17T13:55:11.765Z,36.65
2022-10-17T13:57:41.258Z,36.83
2022-10-17T14:00:20.540Z,36.71
2022-10-17T14:02:49.432Z,36.75
2022-10-17T14:05:20.363Z,36.60
2022-10-17T14:10:43.588Z,36.70
2022-10-17T14:13:22.908Z,36.67
2022-10-17T14:15:53.906Z,36.73
2022-10-17T14:18:25.599Z,36.60
2022-10-17T14:23:44.506Z,36.82
2022-10-17T14:26:15.658Z,36.64
2022-10-17T14:28:45.757Z,36.52
2022-10-17T14:31:22.063Z,36.83
2022-10-17T14:33:52.135Z,36.61
2022-10-17T14:36:21.405Z,36.50
2022-10-17T14:38:53.077Z,36.64
2022-10-17T14:41:43.523Z,36.47
2022-10-17T14:44:19.890Z,36.61
2022-10-17T14:46:54.201Z,36.57
2022-10-17T14:49:32.406Z,36.43
2022-10-17T14:52:31.937Z,36.72
2022-10-17T14:55:02.301Z,36.46
2022-10-17T14:57:43.749Z,36.40
2022-10-17T15:00:15.946Z,36.41
2022-10-17T15:02:46.662Z,36.66
2022-10-17T15:05:15.691Z,36.80
2022-10-17T15:07:44.280Z,36.85
2022-10-17T15:10:32.951Z,36.79
2022-10-17T15:13:27.551Z,36.99
2022-10-17T15:15:52.141Z,36.88
2022-10-17T15:18:21.701Z,36.86
2022-10-17T15:20:55.399Z,36.93
2022-10-17T15:23:32.874Z,36.79
2022-10-17T15:26:02.775Z,36.80
2022-10-17T15:28:30.931Z,36.76
2022-10-17T15:30:58.963Z,36.70
2022-10-17T15:33:28.307Z,36.91
2022-10-17T15:38:29.285Z,36.75
2022-10-17T15:40:57.452Z,36.76
2022-10-17T15:43:25.485Z,36.60
2022-10-17T15:45:53.492Z,36.71
2022-10-17T15:48:30.811Z,36.81
2022-10-17T15:51:00.321Z,36.89
2022-10-17T15:53:28.404Z,36.97
2022-10-17T15:55:56.441Z,36.83
2022-10-17T15:58:24.370Z,36.78
2022-10-17T16:00:52.344Z,37.01
2022-10-17T16:05:53.167Z,37.10
2022-10-17T16:08:22.452Z,37.15
2022-10-17T16:10:51.377Z,36.76
2022-10-17T16:13:21.581Z,36.99
2022-10-17T16:15:49.610Z,36.91
2022-10-17T16:18:17.473Z,36.98
2022-10-17T16:20:45.496Z,37.19
2022-10-17T16:23:14.883Z,37.00
2022-10-17T16:25:44.268Z,37.00
2022-10-17T16:28:12.208Z,37.12
2022-10-17T16:30:46.093Z,37.11
2022-10-17T16:33:14.134Z,37.19
2022-10-17T16:35:42.042Z,37.31
2022-10-17T16:38:09.998Z,37.10
2022-10-17T16:40:39.772Z,36.83
2022-10-17T16:43:11.375Z,37.23
2022-10-17T16:45:39.618Z,37.25
2022-10-17T16:48:07.908Z,37.08
2022-10-17T16:50:39.446Z,37.13
2022-10-17T16:53:07.398Z,37.03
2022-10-17T16:55:35.284Z,37.08
2022-10-17T16:58:03.217Z,37.34
2022-10-17T17:00:32.719Z,37.22
2022-10-17T17:03:00.870Z,37.23
2022-10-17T17:05:28.773Z,37.09
2022-10-17T17:07:56.858Z,37.24
2022-10-17T17:10:24.813Z,37.28
2022-10-17T17:12:52.761Z,37.11
2022-10-17T17:15:20.708Z,37.35
2022-10-17T17:17:54.731Z,37.37
2022-10-17T17:20:23.467Z,37.31
2022-10-17T17:22:52.359Z,37.43
2022-10-17T17:25:20.304Z,37.08
2022-10-17T17:27:48.285Z,37.49
2022-10-17T17:30:16.887Z,37.33
2022-10-17T17:32:44.898Z,37.32
2022-10-17T17:35:14.361Z,37.23
2022-10-17T17:37:42.351Z,37.70
2022-10-17T17:40:11.370Z,37.31
2022-10-17T17:42:39.463Z,37.55
2022-10-17T17:45:08.469Z,37.28
2022-10-17T17:47:36.423Z,37.71
2022-10-17T17:50:04.746Z,37.35
2022-10-17T17:52:34.022Z,37.55
2022-10-17T17:55:02.097Z,37.64
2022-10-17T17:57:31.157Z,37.60
2022-10-17T17:59:59.148Z,38.02
2022-10-17T18:02:27.177Z,37.62
2022-10-17T18:04:55.159Z,38.03
2022-10-17T18:07:23.288Z,37.94
2022-10-17T18:09:53.255Z,37.92
2022-10-17T18:12:21.533Z,38.21
2022-10-17T18:14:49.597Z,38.10
2022-10-17T18:17:17.547Z,38.17
2022-10-17T18:19:45.527Z,38.37
2022-10-17T18:22:13.588Z,38.31
2022-10-17T18:24:42.223Z,38.29
2022-10-17T18:27:13.525Z,38.64
2022-10-17T18:29:41.617Z,38.48
2022-10-17T18:32:09.496Z,38.56
2022-10-17T18:34:37.627Z,38.71
2022-10-17T18:37:05.810Z,38.88
2022-10-17T18:39:33.913Z,38.91
2022-10-17T18:42:01.999Z,39.24
2022-10-17T18:44:31.621Z,38.88
2022-10-17T18:47:03.825Z,39.30
2022-10-17T18:49:32.728Z,39.24
2022-10-17T18:52:00.751Z,39.07
2022-10-17T18:54:29.371Z,39.18
2022-10-17T18:56:57.779Z,39.45
2022-10-17T18:59:25.853Z,39.39
2022-10-17T19:01:55.398Z,39.31
2022-10-17T19:04:23.733Z,39.69
2022-10-17T19:06:52.118Z,39.59
2022-10-17T19:09:20.756Z,39.23
2022-10-17T19:11:48.882Z,39.78
2022-10-17T19:14:17.502Z,39.60
2022-10-17T19:16:49.962Z,39.85
2022-10-17T19:19:22.270Z,39.75
2022-10-17T19:21:51.177Z,39.56
2022-10-17T19:24:22.584Z,39.74
2022-10-17T19:26:53.509Z,39.75
2022-10-17T19:29:23.139Z,39.88
2022-10-17T19:31:51.436Z,39.63
2022-10-17T19:34:21.505Z,39.79
2022-10-17T19:36:50.668Z,39.78
2022-10-17T19:39:22.989Z,39.83
2022-10-17T19:41:51.281Z,39.43
2022-10-17T19:44:20.052Z,39.87
2022-10-17T19:46:49.326Z,40.16
2022-10-17T19:49:18.190Z,40.31
2022-10-17T19:51:47.802Z,39.93
2022-10-17T19:54:18.218Z,39.89
2022-10-17T19:56:46.171Z,40.30
2022-10-17T19:59:15.847Z,40.44
2022-10-17T20:01:44.519Z,40.21
2022-10-17T20:04:13.392Z,40.38
2022-10-17T20:06:42.165Z,40.29
2022-10-17T20:09:15.870Z,40.57
2022-10-17T20:11:45.730Z,40.51
2022-10-17T20:14:13.640Z,40.49
2022-10-17T20:16:41.566Z,40.30
2022-10-17T20:19:12.338Z,40.14
2022-10-17T20:21:40.494Z,40.01
2022-10-17T20:24:14.727Z,40.34
2022-10-17T20:26:43.518Z,40.28
2022-10-17T20:29:14.337Z,40.15
2022-10-17T20:31:43.860Z,40.00
2022-10-17T20:34:14.768Z,40.42
2022-10-17T20:36:42.801Z,40.36
2022-10-17T20:39:14.233Z,40.16
2022-10-17T20:41:42.919Z,39.97
2022-10-17T20:44:11.466Z,40.24
2022-10-17T20:46:48.498Z,39.94
2022-10-17T20:49:25.754Z,40.30
2022-10-17T20:51:53.632Z,40.32
2022-10-17T20:54:22.901Z,40.05
2022-10-17T20:56:51.311Z,40.24
2022-10-17T20:59:19.406Z,39.94
2022-10-17T21:01:48.644Z,40.41
2022-10-17T21:04:44.120Z,40.09
2022-10-17T21:07:04.818Z,40.07
2022-10-17T21:09:34.558Z,39.92
2022-10-17T21:12:05.044Z,40.40
2022-10-17T21:14:34.102Z,40.32
2022-10-17T21:17:04.921Z,40.09
2022-10-17T21:19:33.393Z,40.17
2022-10-17T21:22:01.599Z,40.02
2022-10-17T21:24:29.554Z,40.04
2022-10-17T21:26:58.918Z,40.38
2022-10-17T21:29:27.001Z,40.26
2022-10-17T21:31:54.954Z,40.08
2022-10-17T21:34:25.144Z,40.25
2022-10-17T21:36:53.552Z,40.02
2022-10-17T21:39:22.926Z,40.13
2022-10-17T21:41:50.871Z,40.03
2022-10-17T21:44:22.337Z,39.97
2022-10-17T21:46:50.530Z,39.96
2022-10-17T21:49:20.489Z,40.12
2022-10-17T21:51:49.305Z,40.23
2022-10-17T21:54:18.816Z,39.91
2022-10-17T21:56:46.913Z,39.97
2022-10-17T21:59:15.069Z,39.81
2022-10-17T22:01:46.269Z,39.93
2022-10-17T22:04:15.922Z,39.76
2022-10-17T22:06:46.017Z,39.96
2022-10-17T22:09:17.147Z,39.62
2022-10-17T22:11:46.886Z,39.54
2022-10-17T22:14:16.805Z,39.74
2022-10-17T22:16:47.187Z,39.99
2022-10-17T22:19:17.813Z,39.78
2022-10-17T22:21:46.240Z,39.60
2022-10-17T22:24:15.682Z,39.50
2022-10-17T22:26:44.577Z,39.42
2022-10-17T22:29:12.609Z,39.52
2022-10-17T22:31:41.131Z,39.46
2022-10-17T22:34:13.841Z,39.58
2022-10-17T22:36:42.100Z,39.41
2022-10-17T22:39:10.758Z,39.33
2022-10-17T22:41:38.916Z,39.63
2022-10-17T22:44:07.648Z,39.48
2022-10-17T22:46:36.002Z,39.55
2022-10-17T22:49:04.195Z,39.46
2022-10-17T22:51:33.517Z,39.38
2022-10-17T22:54:01.592Z,39.45
2022-10-17T22:56:29.548Z,39.23
2022-10-17T22:58:57.534Z,39.29
2022-10-17T23:01:27.143Z,39.05
2022-10-17T23:03:55.217Z,39.27
2022-10-17T23:06:23.689Z,39.38
2022-10-17T23:08:53.296Z,39.24
2022-10-17T23:11:21.928Z,39.49
2022-10-17T23:13:49.801Z,39.13
2022-10-17T23:16:17.711Z,39.36
2022-10-17T23:18:45.742Z,39.13
2022-10-17T23:21:13.753Z,39.34
2022-10-17T23:23:41.792Z,39.32
2022-10-17T23:26:12.974Z,39.37
2022-10-17T23:28:41.731Z,39.12
2022-10-17T23:31:14.459Z,39.25
2022-10-17T23:33:42.926Z,39.00
2022-10-17T23:36:11.633Z,39.10
2022-10-17T23:38:39.892Z,39.27
2022-10-17T23:41:08.024Z,39.21
2022-10-17T23:43:37.423Z,39.20
2022-10-17T23:46:06.476Z,39.25
2022-10-17T23:48:34.585Z,39.36
2022-10-17T23:51:02.865Z,39.08
2022-10-17T23:53:30.730Z,39.23
2022-10-17T23:55:58.714Z,39.26
2022-10-17T23:58:26.646Z,39.43
